Picayune, Mississippi
Current Conditions -  °F | °C
As of 9:53 PM on Wednesday 22 Oct 2014 (Local Time) from KASD Reporting Station
Clear Clear  
Wind Chill: 58°   Ceiling: Unl
Heat Index: 58°   Visibility: 10mi
Dew Point: 53°   Wind: 0mph
Humidity: 84%   Direction: NA
Pressure: 30.08"   Gusts: NA
Location:  30.53°N, 89.68°W
Report Text: KASD 230253Z AUTO 00000KT 10SM CLR 14/12 A3008 RMK AO2 SLP186 T01440117 53014
Loading
Personal Weather Stations






























Interactive Weather Map
Tropical Storm Tracking
New forecast layout! Learn more

10-Day Weather Forecast

Advertisements
Track Severe Weather on mobile